createdAt,value
2023-04-23T00:00:17.730Z,34.53
2023-04-23T00:02:44.687Z,34.50
2023-04-23T00:05:13.077Z,34.29
2023-04-23T00:07:39.995Z,34.24
2023-04-23T00:10:08.930Z,33.91
2023-04-23T00:12:35.673Z,33.70
2023-04-23T00:15:02.571Z,33.75
2023-04-23T00:17:29.377Z,33.68
2023-04-23T00:19:56.198Z,33.49
2023-04-23T00:22:22.942Z,33.85
2023-04-23T00:24:49.746Z,33.55
2023-04-23T00:27:18.018Z,36.49
2023-04-23T00:29:46.248Z,39.49
2023-04-23T00:32:14.458Z,39.02
2023-04-23T00:34:41.508Z,36.46
2023-04-23T00:37:08.680Z,35.62
2023-04-23T00:39:37.479Z,35.13
2023-04-23T00:42:10.367Z,34.43
2023-04-23T00:44:37.398Z,34.40
2023-04-23T00:47:04.167Z,33.95
2023-04-23T00:49:30.901Z,34.44
2023-04-23T00:51:57.651Z,33.98
2023-04-23T00:54:24.394Z,33.69
2023-04-23T00:56:51.204Z,34.18
2023-04-23T00:59:17.974Z,33.87
2023-04-23T01:01:45.562Z,33.99
2023-04-23T01:04:12.481Z,34.06
2023-04-23T01:06:39.488Z,33.38
2023-04-23T01:09:06.393Z,35.34
2023-04-23T01:11:33.256Z,38.36
2023-04-23T01:14:00.200Z,39.63
2023-04-23T01:16:27.002Z,37.08
2023-04-23T01:18:53.838Z,35.79
2023-04-23T01:21:20.931Z,35.20
2023-04-23T01:23:47.729Z,34.68
2023-04-23T01:26:14.895Z,34.55
2023-04-23T01:28:41.634Z,34.67
2023-04-23T01:31:08.473Z,34.57
2023-04-23T01:33:35.793Z,33.86
2023-04-23T01:36:02.545Z,34.22
2023-04-23T01:38:29.315Z,34.07
2023-04-23T01:40:56.063Z,33.82
2023-04-23T01:43:22.791Z,34.02
2023-04-23T01:45:49.643Z,33.79
2023-04-23T01:48:16.438Z,33.86
2023-04-23T01:50:43.212Z,34.67
2023-04-23T01:53:10.275Z,36.99
2023-04-23T01:55:37.013Z,37.31
2023-04-23T01:58:03.878Z,39.15
2023-04-23T02:00:30.885Z,36.90
2023-04-23T02:02:57.762Z,36.04
2023-04-23T02:05:24.666Z,35.22
2023-04-23T02:07:51.442Z,35.12
2023-04-23T02:10:21.281Z,34.80
2023-04-23T02:12:48.063Z,34.59
2023-04-23T02:15:14.818Z,34.75
2023-04-23T02:17:41.646Z,34.31
2023-04-23T02:20:09.575Z,34.39
2023-04-23T02:22:36.615Z,34.38
2023-04-23T02:25:03.446Z,34.23
2023-04-23T02:27:30.272Z,34.13
2023-04-23T02:29:57.030Z,34.12
2023-04-23T02:32:23.835Z,34.06
2023-04-23T02:34:50.924Z,33.62
2023-04-23T02:37:17.793Z,33.83
2023-04-23T02:39:44.575Z,33.91
2023-04-23T02:42:11.333Z,33.99
2023-04-23T02:44:38.130Z,37.51
2023-04-23T02:47:05.003Z,37.68
2023-04-23T02:49:31.837Z,39.71
2023-04-23T02:51:58.588Z,37.52
2023-04-23T02:54:25.465Z,36.02
2023-04-23T02:56:52.232Z,35.49
2023-04-23T02:59:19.005Z,35.13
2023-04-23T03:01:45.761Z,34.93
2023-04-23T03:04:12.744Z,34.52
2023-04-23T03:06:39.573Z,34.79
2023-04-23T03:09:06.555Z,34.42
2023-04-23T03:11:33.304Z,34.20
2023-04-23T03:14:00.063Z,34.22
2023-04-23T03:16:26.877Z,33.85
2023-04-23T03:18:53.679Z,34.16
2023-04-23T03:21:20.508Z,33.94
2023-04-23T03:23:47.353Z,34.18
2023-04-23T03:26:14.083Z,34.03
2023-04-23T03:28:40.858Z,33.92
2023-04-23T03:31:07.718Z,34.23
2023-04-23T03:33:34.675Z,37.94
2023-04-23T03:36:01.441Z,40.63
2023-04-23T03:38:28.212Z,38.11
2023-04-23T03:40:55.120Z,36.33
2023-04-23T03:43:21.888Z,35.43
2023-04-23T03:45:48.683Z,34.89
2023-04-23T03:48:15.993Z,34.93
2023-04-23T03:50:42.815Z,34.88
2023-04-23T03:53:10.162Z,34.26
2023-04-23T03:55:36.920Z,34.38
2023-04-23T03:58:03.685Z,34.35
2023-04-23T04:00:30.510Z,34.47
2023-04-23T04:02:57.424Z,34.18
2023-04-23T04:05:24.812Z,34.29
2023-04-23T04:07:51.593Z,33.96
2023-04-23T04:10:18.454Z,33.96
2023-04-23T04:12:47.720Z,33.94
2023-04-23T04:15:14.583Z,34.14
2023-04-23T04:17:41.421Z,33.87
2023-04-23T04:20:08.413Z,33.77
2023-04-23T04:22:35.178Z,33.71
2023-04-23T04:25:01.922Z,37.64
2023-04-23T04:27:28.681Z,39.46
2023-04-23T04:29:55.722Z,39.66
2023-04-23T04:32:23.283Z,37.15
2023-04-23T04:34:50.603Z,35.90
2023-04-23T04:37:17.615Z,35.36
2023-04-23T04:39:44.497Z,35.04
2023-04-23T04:42:12.940Z,34.66
2023-04-23T04:44:39.941Z,34.73
2023-04-23T04:47:07.938Z,34.75
2023-04-23T04:49:34.778Z,34.22
2023-04-23T04:52:01.836Z,34.13
2023-04-23T04:54:28.659Z,34.25
2023-04-23T04:56:55.488Z,34.18
2023-04-23T04:59:22.233Z,34.13
2023-04-23T05:01:48.972Z,33.97
2023-04-23T05:04:16.071Z,33.80
2023-04-23T05:06:42.936Z,33.93
2023-04-23T05:09:10.469Z,33.94
2023-04-23T05:11:37.330Z,37.55
2023-04-23T05:14:04.513Z,37.93
2023-04-23T05:16:31.387Z,40.06
2023-04-23T05:18:58.206Z,37.55
2023-04-23T05:21:27.028Z,36.22
2023-04-23T05:23:53.795Z,35.85
2023-04-23T05:26:20.663Z,35.40
2023-04-23T05:28:47.415Z,35.30
2023-04-23T05:31:14.206Z,35.04
2023-04-23T05:33:49.385Z,34.58
2023-04-23T05:36:17.185Z,34.74
2023-04-23T05:38:43.987Z,34.80
2023-04-23T05:41:10.820Z,34.62
2023-04-23T05:43:37.579Z,34.72
2023-04-23T05:46:06.351Z,34.37
2023-04-23T05:48:33.263Z,34.16
2023-04-23T05:51:00.175Z,34.38
2023-04-23T05:53:26.994Z,34.21
2023-04-23T05:55:53.779Z,34.26
2023-04-23T05:58:20.667Z,34.24
2023-04-23T06:00:47.496Z,34.05
2023-04-23T06:03:14.775Z,36.19
2023-04-23T06:05:43.177Z,37.96
2023-04-23T06:08:10.144Z,39.75
2023-04-23T06:10:36.972Z,39.19
2023-04-23T06:13:03.759Z,37.30
2023-04-23T06:15:30.715Z,36.26
2023-04-23T06:17:57.846Z,36.00
2023-04-23T06:20:24.743Z,35.89
2023-04-23T06:22:51.514Z,35.54
2023-04-23T06:25:18.305Z,35.19
2023-04-23T06:27:45.159Z,34.96
2023-04-23T06:30:11.965Z,35.02
2023-04-23T06:32:38.790Z,35.11
2023-04-23T06:35:06.216Z,34.60
2023-04-23T06:37:33.190Z,34.46
2023-04-23T06:40:00.246Z,34.55
2023-04-23T06:42:27.090Z,34.66
2023-04-23T06:44:53.929Z,34.63
2023-04-23T06:47:20.706Z,34.73
2023-04-23T06:49:47.517Z,34.71
2023-04-23T06:52:14.282Z,34.63
2023-04-23T06:54:41.380Z,34.57
2023-04-23T06:57:08.315Z,36.76
2023-04-23T06:59:35.109Z,38.23
2023-04-23T07:02:02.038Z,39.65
2023-04-23T07:04:28.827Z,39.53
2023-04-23T07:06:55.620Z,37.71
2023-04-23T07:09:23.039Z,36.66
2023-04-23T07:11:49.784Z,36.12
2023-04-23T07:14:16.546Z,36.13
2023-04-23T07:16:43.340Z,35.91
2023-04-23T07:19:10.319Z,35.25
2023-04-23T07:21:37.219Z,35.77
2023-04-23T07:24:06.741Z,35.34
2023-04-23T07:26:33.689Z,35.46
2023-04-23T07:29:01.266Z,35.29
2023-04-23T07:31:28.458Z,35.19
2023-04-23T07:33:55.762Z,34.89
2023-04-23T07:36:22.530Z,35.13
2023-04-23T07:38:49.603Z,34.92
2023-04-23T07:41:16.374Z,34.98
2023-04-23T07:43:43.127Z,34.70
2023-04-23T07:46:09.887Z,34.85
2023-04-23T07:48:36.644Z,37.49
2023-04-23T07:51:03.417Z,38.71
2023-04-23T07:53:30.171Z,39.82
2023-04-23T07:55:56.938Z,39.81
2023-04-23T07:58:23.764Z,37.95
2023-04-23T08:00:50.743Z,36.90
2023-04-23T08:03:17.640Z,36.61
2023-04-23T08:05:44.732Z,36.36
2023-04-23T08:08:11.523Z,36.43
2023-04-23T08:10:38.252Z,35.99
2023-04-23T08:13:05.017Z,36.08
2023-04-23T08:15:31.830Z,35.86
2023-04-23T08:17:58.619Z,35.60
2023-04-23T08:20:25.595Z,35.89
2023-04-23T08:22:53.625Z,35.53
2023-04-23T08:25:20.987Z,35.54
2023-04-23T08:27:47.873Z,35.45
2023-04-23T08:30:14.685Z,35.04
2023-04-23T08:32:41.548Z,35.63
2023-04-23T08:35:08.487Z,35.27
2023-04-23T08:37:35.329Z,35.34
2023-04-23T08:40:02.091Z,38.99
2023-04-23T08:42:28.842Z,41.72
2023-04-23T08:44:55.571Z,39.50
2023-04-23T08:47:22.318Z,37.77
2023-04-23T08:49:50.595Z,37.11
2023-04-23T08:52:17.797Z,36.51
2023-04-23T08:54:44.538Z,36.32
2023-04-23T08:57:11.299Z,36.23
2023-04-23T08:59:38.023Z,36.23
2023-04-23T09:02:09.767Z,36.08
2023-04-23T09:04:36.807Z,36.18
2023-04-23T09:07:04.537Z,35.90
2023-04-23T09:09:31.282Z,35.91
2023-04-23T09:11:58.043Z,35.83
2023-04-23T09:14:25.472Z,35.83
2023-04-23T09:16:52.250Z,35.60
2023-04-23T09:19:19.008Z,35.41
2023-04-23T09:21:46.164Z,35.72
2023-04-23T09:24:13.011Z,37.42
2023-04-23T09:26:39.768Z,41.35
2023-04-23T09:29:06.498Z,41.66
2023-04-23T09:31:33.392Z,38.52
2023-04-23T09:34:00.212Z,37.59
2023-04-23T09:36:28.237Z,37.04
2023-04-23T09:38:55.042Z,36.79
2023-04-23T09:41:21.886Z,36.67
2023-04-23T09:43:48.809Z,36.39
2023-04-23T09:46:15.562Z,36.20
2023-04-23T09:48:45.837Z,36.29
2023-04-23T09:51:12.582Z,36.03
2023-04-23T09:53:40.310Z,36.02
2023-04-23T09:56:07.151Z,35.93
2023-04-23T09:58:33.978Z,35.75
2023-04-23T10:01:00.755Z,35.99
2023-04-23T10:03:27.702Z,36.01
2023-04-23T10:06:01.321Z,40.60
2023-04-23T10:08:29.225Z,40.76
2023-04-23T10:11:09.581Z,38.89
2023-04-23T10:13:40.923Z,37.42
2023-04-23T10:16:21.200Z,37.13
2023-04-23T10:18:49.684Z,36.87
2023-04-23T10:21:16.485Z,36.58
2023-04-23T10:23:43.308Z,36.67
2023-04-23T10:26:10.098Z,36.35
2023-04-23T10:28:36.997Z,36.53
2023-04-23T10:31:03.874Z,36.29
2023-04-23T10:33:37.332Z,36.36
2023-04-23T10:36:09.607Z,36.24
2023-04-23T10:38:39.292Z,36.19
2023-04-23T10:41:12.384Z,36.03
2023-04-23T10:43:39.155Z,36.04
2023-04-23T10:46:06.021Z,37.38
2023-04-23T10:48:32.799Z,41.11
2023-04-23T10:51:17.445Z,42.12
2023-04-23T10:53:46.539Z,38.67
2023-04-23T10:56:13.481Z,37.82
2023-04-23T10:58:40.224Z,37.06
2023-04-23T11:01:06.961Z,37.01
2023-04-23T11:03:34.209Z,36.75
2023-04-23T11:06:01.662Z,36.90
2023-04-23T11:08:28.396Z,36.63
2023-04-23T11:10:56.363Z,36.42
2023-04-23T11:13:23.694Z,36.39
2023-04-23T11:15:50.525Z,36.66
2023-04-23T11:18:17.331Z,36.43
2023-04-23T11:20:44.079Z,35.85
2023-04-23T11:23:10.929Z,36.20
2023-04-23T11:25:37.689Z,36.22
2023-04-23T11:28:04.416Z,40.72
2023-04-23T11:30:31.273Z,41.79
2023-04-23T11:32:59.811Z,39.97
2023-04-23T11:35:33.420Z,38.34
2023-04-23T11:38:00.393Z,37.61
2023-04-23T11:40:30.283Z,37.03
2023-04-23T11:42:57.562Z,37.17
2023-04-23T11:45:24.373Z,36.81
2023-04-23T11:47:51.162Z,36.53
2023-04-23T11:50:18.010Z,36.65
2023-04-23T11:52:44.755Z,36.23
2023-04-23T11:55:12.768Z,36.55
2023-04-23T11:57:39.492Z,36.21
2023-04-23T12:00:06.341Z,36.11
2023-04-23T12:02:33.229Z,36.17
2023-04-23T12:05:00.072Z,36.12
2023-04-23T12:07:27.299Z,35.82
2023-04-23T12:09:54.040Z,37.26
2023-04-23T12:12:21.016Z,41.03
2023-04-23T12:14:47.776Z,40.85
2023-04-23T12:17:14.613Z,38.73
2023-04-23T12:19:44.674Z,37.50
2023-04-23T12:22:11.434Z,37.34
2023-04-23T12:24:38.168Z,36.65
2023-04-23T12:27:05.044Z,36.74
2023-04-23T12:29:31.878Z,36.63
2023-04-23T12:31:58.660Z,36.73
2023-04-23T12:34:25.477Z,36.72
2023-04-23T12:36:52.264Z,36.01
2023-04-23T12:39:19.008Z,36.52
2023-04-23T12:41:45.771Z,36.12
2023-04-23T12:44:12.538Z,36.26
2023-04-23T12:46:39.280Z,36.40
2023-04-23T12:49:06.342Z,36.60
2023-04-23T12:51:33.104Z,41.22
2023-04-23T12:53:59.901Z,41.67
2023-04-23T12:56:26.704Z,39.34
2023-04-23T12:58:53.516Z,37.64
2023-04-23T13:01:20.249Z,37.31
2023-04-23T13:03:47.252Z,36.70
2023-04-23T13:06:14.074Z,36.61
2023-04-23T13:08:40.841Z,36.73
2023-04-23T13:11:07.583Z,36.75
2023-04-23T13:13:34.350Z,36.38
2023-04-23T13:16:01.290Z,36.30
2023-04-23T13:18:28.037Z,36.36
2023-04-23T13:20:54.839Z,36.41
2023-04-23T13:23:21.663Z,36.40
2023-04-23T13:25:48.428Z,36.25
2023-04-23T13:28:15.669Z,36.21
2023-04-23T13:30:42.561Z,37.78
2023-04-23T13:33:09.372Z,41.21
2023-04-23T13:35:37.633Z,41.78
2023-04-23T13:38:04.453Z,38.75
2023-04-23T13:40:31.196Z,37.58
2023-04-23T13:42:58.002Z,37.17
2023-04-23T13:45:24.795Z,36.73
2023-04-23T13:47:51.636Z,36.77
2023-04-23T13:50:18.428Z,36.72
2023-04-23T13:52:45.230Z,36.47
2023-04-23T13:55:11.979Z,36.68
2023-04-23T13:57:38.764Z,36.00
2023-04-23T14:00:05.718Z,36.19
2023-04-23T14:02:32.650Z,35.98
2023-04-23T14:04:59.509Z,35.72
2023-04-23T14:07:26.248Z,35.64
2023-04-23T14:09:53.048Z,38.63
2023-04-23T14:12:19.905Z,41.04
2023-04-23T14:14:46.660Z,41.05
2023-04-23T14:17:13.413Z,38.37
2023-04-23T14:19:40.415Z,37.54
2023-04-23T14:22:07.322Z,37.16
2023-04-23T14:24:34.125Z,37.17
2023-04-23T14:29:28.789Z,36.50
2023-04-23T14:31:55.911Z,36.50
2023-04-23T14:34:22.740Z,36.58
2023-04-23T14:36:49.586Z,36.29
2023-04-23T14:39:16.787Z,36.12
2023-04-23T14:41:43.574Z,36.06
2023-04-23T14:44:10.315Z,36.17
2023-04-23T14:46:37.115Z,35.51
2023-04-23T14:49:03.971Z,39.30
2023-04-23T14:51:31.171Z,41.43
2023-04-23T14:53:57.921Z,40.21
2023-04-23T14:56:24.751Z,38.21
2023-04-23T14:58:51.494Z,37.34
2023-04-23T15:01:18.376Z,37.17
2023-04-23T15:03:45.502Z,36.73
2023-04-23T15:06:12.443Z,36.37
2023-04-23T15:08:39.301Z,36.29
2023-04-23T15:11:12.923Z,36.37
2023-04-23T15:13:39.665Z,36.46
2023-04-23T15:16:06.470Z,36.33
2023-04-23T15:18:33.892Z,36.13
2023-04-23T15:21:03.637Z,35.74
2023-04-23T15:23:30.528Z,36.14
2023-04-23T15:25:57.308Z,35.98
2023-04-23T15:28:24.907Z,40.67
2023-04-23T15:30:51.679Z,40.90
2023-04-23T15:33:21.474Z,39.15
2023-04-23T15:35:51.081Z,37.84
2023-04-23T15:38:17.832Z,36.91
2023-04-23T15:40:44.674Z,36.95
2023-04-23T15:43:12.340Z,36.52
2023-04-23T15:45:39.105Z,36.59
2023-04-23T15:48:05.985Z,36.41
2023-04-23T15:50:32.771Z,36.06
2023-04-23T15:53:01.441Z,36.29
2023-04-23T15:55:28.270Z,36.39
2023-04-23T15:57:55.117Z,35.90
2023-04-23T16:00:21.856Z,35.70
2023-04-23T16:02:48.701Z,35.95
2023-04-23T16:05:15.557Z,38.59
2023-04-23T16:07:42.384Z,41.82
2023-04-23T16:10:09.227Z,41.38
2023-04-23T16:12:36.819Z,38.36
2023-04-23T16:15:03.723Z,37.48
2023-04-23T16:17:31.269Z,36.94
2023-04-23T16:19:58.082Z,36.85
2023-04-23T16:22:25.415Z,36.40
2023-04-23T16:24:52.234Z,36.31
2023-04-23T16:27:18.982Z,36.30
2023-04-23T16:29:45.744Z,36.26
2023-04-23T16:32:12.552Z,36.09
2023-04-23T16:34:39.353Z,35.77
2023-04-23T16:37:06.233Z,35.66
2023-04-23T16:39:33.214Z,35.83
2023-04-23T16:42:00.028Z,36.04
2023-04-23T16:44:26.780Z,40.35
2023-04-23T16:46:53.584Z,41.61
2023-04-23T16:49:21.785Z,39.53
2023-04-23T16:51:48.923Z,37.63
2023-04-23T16:54:15.722Z,37.40
2023-04-23T16:56:45.150Z,36.87
2023-04-23T16:59:11.872Z,36.48
2023-04-23T17:01:38.672Z,36.44
2023-04-23T17:04:05.629Z,36.16
2023-04-23T17:06:32.516Z,36.21
2023-04-23T17:08:59.312Z,36.30
2023-04-23T17:11:26.102Z,36.28
2023-04-23T17:13:52.832Z,35.97
2023-04-23T17:16:19.699Z,35.76
2023-04-23T17:18:46.575Z,35.86
2023-04-23T17:21:13.307Z,35.84
2023-04-23T17:23:40.299Z,39.27
2023-04-23T17:26:07.162Z,40.38
2023-04-23T17:28:33.937Z,39.10
2023-04-23T17:31:01.262Z,37.40
2023-04-23T17:33:28.322Z,37.07
2023-04-23T17:35:55.757Z,36.63
2023-04-23T17:38:22.743Z,36.74
2023-04-23T17:40:49.720Z,36.44
2023-04-23T17:43:16.585Z,36.21
2023-04-23T17:45:43.401Z,36.06
2023-04-23T17:48:10.169Z,35.80
2023-04-23T17:50:36.912Z,35.85
2023-04-23T17:53:03.849Z,35.73
2023-04-23T17:55:32.866Z,35.76
2023-04-23T17:58:01.058Z,35.58
2023-04-23T18:00:28.574Z,37.65
2023-04-23T18:02:56.010Z,41.34
2023-04-23T18:05:22.894Z,40.41
2023-04-23T18:07:49.704Z,37.83
2023-04-23T18:10:16.446Z,37.11
2023-04-23T18:12:43.250Z,36.67
2023-04-23T18:15:12.231Z,36.44
2023-04-23T18:17:39.055Z,35.86
2023-04-23T18:20:09.820Z,36.35
2023-04-23T18:22:37.299Z,35.97
2023-04-23T18:25:04.325Z,35.81
2023-04-23T18:27:33.414Z,35.95
2023-04-23T18:30:00.907Z,35.89
2023-04-23T18:32:34.564Z,35.51
2023-04-23T18:35:02.454Z,35.34
2023-04-23T18:37:29.378Z,35.30
2023-04-23T18:39:58.297Z,37.78
2023-04-23T18:42:25.134Z,41.03
2023-04-23T18:44:52.119Z,41.12
2023-04-23T18:47:19.112Z,37.91
2023-04-23T18:49:45.887Z,37.45
2023-04-23T18:52:12.720Z,36.63
2023-04-23T18:54:39.453Z,36.60
2023-04-23T18:57:06.269Z,36.46
2023-04-23T18:59:35.721Z,36.32
2023-04-23T19:02:03.676Z,36.11
2023-04-23T19:04:30.917Z,35.81
2023-04-23T19:06:57.782Z,35.80
2023-04-23T19:09:24.607Z,35.51
2023-04-23T19:11:51.371Z,35.64
2023-04-23T19:14:19.365Z,35.27
2023-04-23T19:16:46.172Z,35.62
2023-04-23T19:19:12.984Z,39.28
2023-04-23T19:21:39.806Z,41.81
2023-04-23T19:24:06.618Z,39.92
2023-04-23T19:26:33.399Z,38.00
2023-04-23T19:29:00.282Z,37.60
2023-04-23T19:31:27.498Z,36.86
2023-04-23T19:33:54.373Z,36.64
2023-04-23T19:36:21.927Z,36.29
2023-04-23T19:38:48.652Z,36.23
2023-04-23T19:41:15.481Z,36.06
2023-04-23T19:43:42.264Z,35.76
2023-04-23T19:46:09.011Z,35.76
2023-04-23T19:48:35.831Z,36.11
2023-04-23T19:51:02.569Z,35.76
2023-04-23T19:53:30.452Z,35.79
2023-04-23T19:55:57.206Z,35.47
2023-04-23T19:58:23.948Z,35.63
2023-04-23T20:00:52.082Z,38.81
2023-04-23T20:03:18.946Z,39.07
2023-04-23T20:05:46.053Z,41.40
2023-04-23T20:08:15.173Z,39.37
2023-04-23T20:10:42.097Z,38.29
2023-04-23T20:13:08.847Z,37.51
2023-04-23T20:15:36.616Z,37.04
2023-04-23T20:18:03.512Z,36.87
2023-04-23T20:20:30.403Z,36.45
2023-04-23T20:22:57.215Z,36.49
2023-04-23T20:25:25.792Z,36.08
2023-04-23T20:27:52.800Z,36.37
2023-04-23T20:30:19.672Z,36.03
2023-04-23T20:32:46.642Z,35.62
2023-04-23T20:35:13.667Z,35.79
2023-04-23T20:37:40.717Z,36.03
2023-04-23T20:40:07.809Z,35.72
2023-04-23T20:42:38.904Z,35.70
2023-04-23T20:45:07.561Z,35.36
2023-04-23T20:47:34.589Z,35.59
2023-04-23T20:50:01.590Z,37.56
2023-04-23T20:52:28.351Z,39.26
2023-04-23T20:54:55.248Z,40.33
2023-04-23T20:57:21.970Z,40.68
2023-04-23T20:59:48.759Z,38.29
2023-04-23T21:02:15.613Z,37.96
2023-04-23T21:04:42.446Z,37.14
2023-04-23T21:07:09.225Z,36.83
2023-04-23T21:09:35.986Z,36.65
2023-04-23T21:12:02.745Z,36.65
2023-04-23T21:14:29.470Z,36.47
2023-04-23T21:16:56.844Z,35.98
2023-04-23T21:19:23.587Z,35.92
2023-04-23T21:21:50.372Z,35.80
2023-04-23T21:24:17.125Z,35.86
2023-04-23T21:26:43.870Z,35.80
2023-04-23T21:29:11.339Z,35.70
2023-04-23T21:31:38.628Z,35.67
2023-04-23T21:34:05.416Z,35.51
2023-04-23T21:36:32.426Z,35.68
2023-04-23T21:38:59.289Z,39.27
2023-04-23T21:41:26.121Z,39.11
2023-04-23T21:43:52.865Z,42.55
2023-04-23T21:46:19.631Z,39.77
2023-04-23T21:48:47.057Z,38.30
2023-04-23T21:51:14.217Z,37.73
2023-04-23T21:53:41.047Z,37.33
2023-04-23T21:56:07.810Z,36.95
2023-04-23T21:58:35.808Z,36.91
2023-04-23T22:01:02.617Z,36.35
2023-04-23T22:03:38.629Z,36.17
2023-04-23T22:06:06.263Z,36.29
2023-04-23T22:08:33.065Z,35.84
2023-04-23T22:10:59.850Z,35.78
2023-04-23T22:13:26.695Z,35.81
2023-04-23T22:15:53.436Z,35.72
2023-04-23T22:18:20.456Z,35.59
2023-04-23T22:20:50.787Z,35.65
2023-04-23T22:23:17.547Z,35.35
2023-04-23T22:25:44.665Z,35.68
2023-04-23T22:28:11.440Z,35.60
2023-04-23T22:30:38.188Z,34.89
2023-04-23T22:33:05.143Z,37.73
2023-04-23T22:35:32.129Z,39.45
2023-04-23T22:37:58.927Z,41.91
2023-04-23T22:40:25.681Z,40.63
2023-04-23T22:42:52.513Z,38.66
2023-04-23T22:45:19.254Z,38.06
2023-04-23T22:47:46.439Z,37.40
2023-04-23T22:50:13.216Z,37.23
2023-04-23T22:52:40.483Z,36.66
2023-04-23T22:55:07.344Z,36.44
2023-04-23T22:57:34.137Z,36.38
2023-04-23T23:00:00.923Z,36.19
2023-04-23T23:02:27.787Z,36.00
2023-04-23T23:04:54.805Z,35.59
2023-04-23T23:07:21.575Z,35.70
2023-04-23T23:09:48.357Z,35.87
2023-04-23T23:12:15.183Z,35.52
2023-04-23T23:14:41.908Z,35.47
2023-04-23T23:17:08.649Z,35.62
2023-04-23T23:19:35.562Z,35.51
2023-04-23T23:22:02.307Z,35.54
2023-04-23T23:24:29.043Z,38.95
2023-04-23T23:26:55.832Z,42.26
2023-04-23T23:29:22.682Z,40.37
2023-04-23T23:31:49.612Z,37.87
2023-04-23T23:34:16.451Z,37.22
2023-04-23T23:36:45.005Z,36.68
2023-04-23T23:39:13.108Z,36.70
2023-04-23T23:41:39.885Z,36.45
2023-04-23T23:44:06.708Z,35.98
2023-04-23T23:46:33.571Z,36.04
2023-04-23T23:49:00.522Z,35.91
2023-04-23T23:51:28.912Z,35.81
2023-04-23T23:53:55.704Z,35.53
2023-04-23T23:56:22.538Z,35.77
2023-04-23T23:58:49.307Z,35.52
